createdAt,value
2019-01-13T00:01:53.417Z,66.07
2019-01-13T00:04:22.881Z,66.10
2019-01-13T00:06:52.356Z,66.03
2019-01-13T00:09:23.226Z,65.72
2019-01-13T00:11:52.981Z,65.56
2019-01-13T00:14:22.456Z,64.94
2019-01-13T00:16:51.938Z,65.04
2019-01-13T00:19:21.433Z,65.00
2019-01-13T00:21:50.888Z,64.91
2019-01-13T00:24:20.377Z,64.91
2019-01-13T00:26:49.832Z,65.01
2019-01-13T00:29:19.348Z,64.91
2019-01-13T00:31:48.844Z,64.85
2019-01-13T00:34:18.330Z,65.25
2019-01-13T00:36:47.788Z,65.80
2019-01-13T00:39:17.298Z,66.19
2019-01-13T00:41:46.783Z,66.20
2019-01-13T00:44:16.267Z,65.94
2019-01-13T00:46:45.808Z,65.70
2019-01-13T00:49:15.313Z,65.83
2019-01-13T00:51:44.765Z,65.78
2019-01-13T00:54:14.284Z,65.89
2019-01-13T00:56:43.802Z,66.03
2019-01-13T00:59:13.309Z,66.33
2019-01-13T01:01:42.790Z,66.64
2019-01-13T01:04:12.474Z,67.35
2019-01-13T01:06:41.967Z,67.33
2019-01-13T01:09:11.496Z,67.44
2019-01-13T01:11:41.064Z,67.04
2019-01-13T01:14:10.614Z,66.77
2019-01-13T01:16:40.068Z,66.68
2019-01-13T01:19:09.591Z,66.50
2019-01-13T01:21:39.073Z,66.29
2019-01-13T01:24:08.561Z,66.46
2019-01-13T01:26:38.073Z,66.33
2019-01-13T01:29:07.597Z,65.94
2019-01-13T01:31:37.133Z,65.67
2019-01-13T01:34:06.614Z,65.48
2019-01-13T01:36:36.138Z,65.34
2019-01-13T01:39:07.705Z,65.64
2019-01-13T01:41:37.236Z,65.57
2019-01-13T01:44:06.709Z,65.67
2019-01-13T01:46:36.251Z,65.78
2019-01-13T01:49:05.755Z,65.98
2019-01-13T01:51:35.223Z,66.19
2019-01-13T01:54:04.748Z,66.08
2019-01-13T01:56:34.237Z,66.22
2019-01-13T01:59:05.640Z,66.05
2019-01-13T02:01:35.117Z,65.98
2019-01-13T02:04:04.587Z,65.58
2019-01-13T02:06:34.081Z,65.36
2019-01-13T02:09:05.402Z,65.29
2019-01-13T02:11:34.869Z,65.16
2019-01-13T02:14:04.466Z,65.19
2019-01-13T02:16:33.951Z,65.21
2019-01-13T02:19:03.420Z,65.41
2019-01-13T02:21:32.895Z,65.44
2019-01-13T02:24:02.339Z,65.29
2019-01-13T02:26:31.807Z,65.08
2019-01-13T02:29:01.346Z,65.17
2019-01-13T02:31:30.825Z,65.23
2019-01-13T02:34:00.287Z,65.04
2019-01-13T02:36:29.864Z,64.89
2019-01-13T02:38:59.357Z,65.08
2019-01-13T02:41:29.855Z,65.05
2019-01-13T02:43:59.395Z,65.10
2019-01-13T02:46:29.018Z,65.03
2019-01-13T02:48:58.532Z,64.82
2019-01-13T02:51:28.435Z,64.53
2019-01-13T02:53:58.132Z,64.48
2019-01-13T02:56:27.598Z,64.30
2019-01-13T02:58:57.151Z,64.26
2019-01-13T03:01:26.611Z,64.08
2019-01-13T03:03:56.061Z,64.03
2019-01-13T03:06:25.594Z,64.40
2019-01-13T03:08:55.088Z,64.25
2019-01-13T03:11:24.595Z,64.21
2019-01-13T03:13:54.041Z,64.32
2019-01-13T03:16:23.506Z,64.42
2019-01-13T03:18:53.029Z,64.40
2019-01-13T03:21:22.513Z,64.49
2019-01-13T03:23:51.999Z,64.33
2019-01-13T03:26:21.492Z,64.35
2019-01-13T03:28:50.969Z,64.51
2019-01-13T03:31:20.466Z,64.54
2019-01-13T03:33:49.903Z,64.77
2019-01-13T03:36:19.393Z,65.06
2019-01-13T03:38:48.879Z,66.08
2019-01-13T03:41:18.399Z,67.02
2019-01-13T03:43:47.862Z,67.49
2019-01-13T03:46:17.340Z,68.39
2019-01-13T03:48:46.759Z,68.97
2019-01-13T03:51:16.208Z,69.37
2019-01-13T03:53:45.652Z,69.22
2019-01-13T03:56:15.490Z,69.07
2019-01-13T03:58:45.000Z,69.37
2019-01-13T04:01:18.740Z,69.28
2019-01-13T04:03:45.743Z,68.77
2019-01-13T04:06:15.247Z,68.76
2019-01-13T04:08:44.724Z,68.46
2019-01-13T04:11:14.199Z,68.13
2019-01-13T04:13:43.783Z,68.03
2019-01-13T04:16:13.232Z,67.78
2019-01-13T04:18:42.722Z,67.93
2019-01-13T04:21:12.195Z,67.80
2019-01-13T04:23:41.701Z,67.97
2019-01-13T04:26:11.186Z,68.12
2019-01-13T04:28:40.652Z,68.09
2019-01-13T04:31:10.129Z,68.31
2019-01-13T04:33:39.562Z,68.24
2019-01-13T04:36:09.034Z,68.13
2019-01-13T04:38:38.476Z,67.99
2019-01-13T04:41:07.954Z,67.88
2019-01-13T04:43:37.488Z,67.84
2019-01-13T04:46:06.976Z,67.67
2019-01-13T04:48:36.422Z,67.40
2019-01-13T04:51:05.903Z,67.39
2019-01-13T04:53:35.469Z,67.22
2019-01-13T04:56:05.027Z,67.13
2019-01-13T04:58:34.498Z,66.85
2019-01-13T05:01:04.004Z,67.02
2019-01-13T05:03:33.490Z,66.93
2019-01-13T05:06:03.002Z,66.87
2019-01-13T05:08:32.490Z,67.04
2019-01-13T05:11:02.000Z,67.22
2019-01-13T05:13:31.516Z,67.24
2019-01-13T05:16:01.027Z,67.33
2019-01-13T05:18:30.493Z,67.34
2019-01-13T05:20:59.946Z,67.01
2019-01-13T05:23:29.449Z,67.09
2019-01-13T05:25:58.937Z,66.95
2019-01-13T05:28:28.424Z,67.05
2019-01-13T05:30:57.924Z,67.15
2019-01-13T05:33:27.414Z,67.15
2019-01-13T05:35:56.878Z,67.31
2019-01-13T05:38:26.322Z,67.29
2019-01-13T05:40:55.785Z,67.07
2019-01-13T05:43:25.267Z,66.79
2019-01-13T05:45:54.736Z,67.07
2019-01-13T05:48:24.650Z,67.01
2019-01-13T05:50:54.157Z,67.03
2019-01-13T05:53:23.653Z,67.00
2019-01-13T05:55:54.144Z,66.90
2019-01-13T05:58:23.707Z,66.72
2019-01-13T06:00:53.214Z,66.71
2019-01-13T06:03:22.717Z,66.61
2019-01-13T06:05:52.244Z,66.79
2019-01-13T06:08:21.739Z,66.68
2019-01-13T06:10:51.234Z,66.71
2019-01-13T06:13:20.734Z,66.56
2019-01-13T06:15:50.195Z,66.40
2019-01-13T06:18:19.676Z,66.28
2019-01-13T06:20:49.342Z,66.08
2019-01-13T06:23:18.820Z,65.78
2019-01-13T06:25:48.319Z,65.77
2019-01-13T06:28:17.861Z,65.38
2019-01-13T06:30:47.485Z,65.50
2019-01-13T06:33:17.014Z,69.57
2019-01-13T06:35:46.546Z,67.81
2019-01-13T06:38:16.078Z,67.55
2019-01-13T06:40:45.566Z,65.75
2019-01-13T06:43:14.997Z,64.99
2019-01-13T06:45:44.517Z,64.88
2019-01-13T06:48:13.999Z,64.42
2019-01-13T06:50:43.525Z,64.16
2019-01-13T06:53:13.018Z,64.25
2019-01-13T06:55:42.548Z,64.44
2019-01-13T06:58:12.057Z,64.45
2019-01-13T07:00:41.572Z,64.75
2019-01-13T07:03:11.042Z,65.05
2019-01-13T07:05:40.551Z,65.35
2019-01-13T07:08:10.043Z,65.80
2019-01-13T07:10:39.522Z,66.14
2019-01-13T07:13:09.123Z,66.03
2019-01-13T07:15:38.862Z,66.62
2019-01-13T07:18:09.698Z,67.10
2019-01-13T07:20:39.300Z,67.28
2019-01-13T07:23:09.085Z,67.56
2019-01-13T07:25:38.553Z,67.17
2019-01-13T07:28:50.863Z,67.41
2019-01-13T07:31:20.459Z,67.95
2019-01-13T07:33:50.814Z,68.23
2019-01-13T07:36:20.535Z,68.14
2019-01-13T07:38:50.066Z,67.87
2019-01-13T07:41:19.530Z,67.85
2019-01-13T07:43:48.992Z,67.71
2019-01-13T07:46:18.615Z,67.49
2019-01-13T07:48:48.090Z,67.89
2019-01-13T07:51:17.632Z,68.17
2019-01-13T07:53:47.142Z,67.93
2019-01-13T07:56:16.717Z,68.61
2019-01-13T07:58:46.261Z,68.64
2019-01-13T08:01:15.750Z,68.62
2019-01-13T08:03:45.274Z,68.97
2019-01-13T08:06:14.817Z,69.02
2019-01-13T08:08:44.340Z,68.87
2019-01-13T08:11:14.032Z,69.01
2019-01-13T08:13:43.504Z,68.87
2019-01-13T08:16:13.039Z,69.55
2019-01-13T08:18:46.020Z,69.12
2019-01-13T08:21:15.779Z,68.53
2019-01-13T08:23:45.314Z,68.16
2019-01-13T08:26:14.836Z,67.87
2019-01-13T08:28:44.414Z,67.77
2019-01-13T08:31:14.053Z,67.18
2019-01-13T08:33:43.619Z,67.04
2019-01-13T08:36:13.216Z,66.65
2019-01-13T08:38:42.666Z,66.42
2019-01-13T08:41:12.263Z,66.19
2019-01-13T08:43:41.815Z,65.80
2019-01-13T08:46:11.428Z,65.84
2019-01-13T08:48:40.962Z,65.35
2019-01-13T08:51:10.520Z,64.98
2019-01-13T08:53:40.111Z,64.76
2019-01-13T08:56:09.938Z,64.20
2019-01-13T08:58:39.521Z,64.43
2019-01-13T09:01:09.303Z,64.20
2019-01-13T09:03:39.376Z,64.29
2019-01-13T09:06:09.211Z,63.97
2019-01-13T09:08:38.793Z,63.48
2019-01-13T09:11:08.457Z,64.15
2019-01-13T09:13:38.346Z,63.55
2019-01-13T09:16:08.006Z,63.58
2019-01-13T09:18:37.591Z,63.51
2019-01-13T09:21:07.602Z,63.65
2019-01-13T09:23:37.333Z,63.16
2019-01-13T09:26:06.799Z,62.72
2019-01-13T09:28:36.279Z,61.93
2019-01-13T09:31:05.775Z,61.67
2019-01-13T09:33:35.342Z,61.35
2019-01-13T09:36:04.891Z,60.80
2019-01-13T09:38:34.449Z,60.09
2019-01-13T09:41:03.976Z,59.76
2019-01-13T09:43:33.516Z,59.47
2019-01-13T09:46:03.110Z,58.77
2019-01-13T09:48:32.607Z,58.85
2019-01-13T09:51:02.203Z,58.71
2019-01-13T09:53:31.756Z,58.07
2019-01-13T09:56:01.349Z,57.78
2019-01-13T09:58:31.075Z,57.18
2019-01-13T10:01:00.672Z,57.63
2019-01-13T10:03:30.130Z,57.52
2019-01-13T10:05:59.686Z,57.45
2019-01-13T10:08:29.231Z,57.36
2019-01-13T10:10:58.817Z,57.75
2019-01-13T10:13:28.367Z,57.83
2019-01-13T10:15:57.900Z,57.68
2019-01-13T10:18:27.418Z,57.76
2019-01-13T10:20:56.884Z,57.51
2019-01-13T10:23:26.462Z,58.25
2019-01-13T10:25:55.939Z,57.97
2019-01-13T10:28:25.566Z,57.82
2019-01-13T10:30:55.321Z,57.53
2019-01-13T10:33:24.902Z,57.50
2019-01-13T10:35:54.425Z,57.01
2019-01-13T10:38:23.958Z,57.47
2019-01-13T10:40:54.885Z,57.26
2019-01-13T10:43:24.526Z,56.94
2019-01-13T10:45:53.994Z,56.93
2019-01-13T10:48:23.654Z,56.69
2019-01-13T10:50:53.211Z,56.24
2019-01-13T10:53:22.764Z,55.92
2019-01-13T10:55:52.401Z,56.21
2019-01-13T10:58:21.941Z,55.86
2019-01-13T11:00:51.485Z,55.56
2019-01-13T11:03:21.027Z,55.20
2019-01-13T11:05:50.513Z,55.20
2019-01-13T11:08:20.012Z,54.69
2019-01-13T11:10:49.670Z,54.92
2019-01-13T11:13:19.218Z,54.83
2019-01-13T11:15:48.885Z,54.63
2019-01-13T11:18:18.426Z,54.49
2019-01-13T11:20:47.937Z,54.22
2019-01-13T11:23:17.457Z,54.14
2019-01-13T11:25:47.094Z,54.24
2019-01-13T11:28:16.657Z,54.33
2019-01-13T11:30:49.348Z,53.87
2019-01-13T11:33:18.974Z,54.02
2019-01-13T11:35:48.582Z,54.22
2019-01-13T11:38:18.179Z,54.39
2019-01-13T11:40:50.897Z,55.38
2019-01-13T11:43:20.417Z,55.64
2019-01-13T11:45:50.904Z,55.19
2019-01-13T11:48:20.491Z,55.34
2019-01-13T11:50:50.065Z,55.69
2019-01-13T11:53:19.697Z,55.88
2019-01-13T11:55:49.177Z,56.05
2019-01-13T11:58:18.777Z,56.53
2019-01-13T12:00:49.778Z,56.92
2019-01-13T12:03:19.365Z,56.98
2019-01-13T12:05:48.840Z,57.67
2019-01-13T12:08:18.368Z,57.92
2019-01-13T12:10:48.087Z,58.17
2019-01-13T12:13:17.583Z,58.17
2019-01-13T12:15:47.021Z,57.94
2019-01-13T12:18:16.733Z,57.84
2019-01-13T12:20:46.368Z,57.96
2019-01-13T12:23:16.106Z,58.41
2019-01-13T12:25:52.362Z,58.59
2019-01-13T12:28:17.549Z,58.74
2019-01-13T12:30:47.054Z,58.66
2019-01-13T12:33:24.293Z,58.64
2019-01-13T12:35:48.281Z,58.68
2019-01-13T12:38:17.862Z,58.78
2019-01-13T12:40:47.357Z,58.57
2019-01-13T12:43:16.981Z,58.42
2019-01-13T12:45:46.707Z,58.36
2019-01-13T12:48:16.363Z,58.71
2019-01-13T12:50:45.905Z,58.84
2019-01-13T12:53:15.490Z,58.99
2019-01-13T12:55:45.145Z,58.91
2019-01-13T12:58:14.677Z,58.85
2019-01-13T13:00:44.378Z,59.34
2019-01-13T13:03:20.288Z,59.75
2019-01-13T13:05:49.993Z,59.84
2019-01-13T13:08:19.594Z,60.03
2019-01-13T13:10:51.968Z,59.92
2019-01-13T13:13:21.518Z,59.59
2019-01-13T13:15:51.010Z,59.54
2019-01-13T13:18:20.518Z,59.59
2019-01-13T13:20:50.042Z,60.07
2019-01-13T13:23:20.069Z,59.37
2019-01-13T13:25:49.645Z,59.31
2019-01-13T13:28:20.052Z,59.05
2019-01-13T13:30:56.193Z,59.26
2019-01-13T13:33:25.981Z,59.11
2019-01-13T13:35:56.113Z,59.61
2019-01-13T13:38:26.398Z,59.46
2019-01-13T13:40:56.061Z,59.45
2019-01-13T13:43:32.024Z,59.37
2019-01-13T13:46:03.439Z,59.22
2019-01-13T13:48:33.061Z,59.27
2019-01-13T13:51:02.696Z,59.23
2019-01-13T13:53:38.516Z,59.40
2019-01-13T13:56:08.044Z,59.48
2019-01-13T13:58:37.801Z,59.77
2019-01-13T14:01:07.453Z,59.93
2019-01-13T14:03:37.001Z,59.75
2019-01-13T14:06:06.508Z,60.17
2019-01-13T14:08:36.043Z,60.66
2019-01-13T14:11:05.725Z,61.01
2019-01-13T14:13:35.372Z,61.40
2019-01-13T14:16:04.988Z,61.62
2019-01-13T14:18:34.523Z,61.74
2019-01-13T14:21:03.972Z,62.06
2019-01-13T14:23:33.557Z,62.29
2019-01-13T14:26:03.145Z,62.40
2019-01-13T14:28:32.646Z,62.98
2019-01-13T14:31:02.173Z,63.09
2019-01-13T14:33:31.739Z,63.54
2019-01-13T14:36:01.446Z,63.65
2019-01-13T14:38:31.019Z,63.49
2019-01-13T14:41:00.597Z,63.02
2019-01-13T14:43:30.085Z,62.79
2019-01-13T14:45:59.615Z,62.82
2019-01-13T14:48:29.142Z,62.66
2019-01-13T14:50:58.661Z,62.76
2019-01-13T14:53:28.197Z,62.66
2019-01-13T14:55:57.715Z,62.75
2019-01-13T14:58:27.223Z,63.01
2019-01-13T15:00:56.823Z,62.98
2019-01-13T15:03:26.341Z,63.06
2019-01-13T15:05:56.151Z,63.11
2019-01-13T15:08:25.698Z,63.28
2019-01-13T15:10:55.176Z,63.56
2019-01-13T15:13:24.640Z,63.84
2019-01-13T15:15:54.137Z,64.04
2019-01-13T15:18:23.634Z,63.96
2019-01-13T15:20:53.145Z,64.18
2019-01-13T15:23:22.713Z,64.14
2019-01-13T15:25:52.220Z,63.98
2019-01-13T15:28:21.908Z,64.08
2019-01-13T15:30:51.379Z,64.10
2019-01-13T15:33:20.875Z,64.37
2019-01-13T15:35:50.427Z,64.35
2019-01-13T15:38:19.896Z,64.37
2019-01-13T15:40:49.472Z,64.42
2019-01-13T15:43:19.170Z,64.55
2019-01-13T15:45:48.714Z,64.57
2019-01-13T15:48:18.553Z,64.26
2019-01-13T15:50:48.163Z,64.31
2019-01-13T15:53:17.698Z,64.16
2019-01-13T15:55:47.508Z,63.93
2019-01-13T15:58:17.056Z,64.11
2019-01-13T16:00:46.615Z,63.96
2019-01-13T16:03:16.099Z,63.82
2019-01-13T16:05:47.669Z,63.55
2019-01-13T16:08:17.226Z,63.68
2019-01-13T16:10:46.704Z,63.85
2019-01-13T16:13:16.202Z,64.00
2019-01-13T16:15:45.690Z,64.07
2019-01-13T16:18:15.174Z,64.11
2019-01-13T16:20:44.726Z,64.18
2019-01-13T16:23:14.339Z,64.19
2019-01-13T16:25:44.502Z,64.46
2019-01-13T16:28:14.021Z,64.29
2019-01-13T16:30:43.510Z,64.42
2019-01-13T16:33:13.054Z,64.41
2019-01-13T16:35:43.114Z,64.28
2019-01-13T16:38:15.778Z,64.47
2019-01-13T16:40:45.484Z,64.37
2019-01-13T16:43:15.236Z,64.61
2019-01-13T16:45:45.133Z,64.72
2019-01-13T16:48:16.270Z,64.75
2019-01-13T16:50:45.961Z,64.78
2019-01-13T16:53:15.637Z,64.80
2019-01-13T16:55:45.200Z,64.79
2019-01-13T16:58:15.037Z,64.89
2019-01-13T17:00:44.479Z,64.88
2019-01-13T17:03:13.992Z,65.32
2019-01-13T17:05:43.765Z,65.29
2019-01-13T17:08:13.593Z,65.46
2019-01-13T17:10:43.085Z,65.62
2019-01-13T17:13:12.721Z,65.62
2019-01-13T17:15:42.395Z,65.18
2019-01-13T17:18:12.123Z,64.97
2019-01-13T17:20:41.941Z,64.51
2019-01-13T17:23:11.468Z,64.20
2019-01-13T17:25:43.213Z,63.96
2019-01-13T17:28:12.753Z,63.59
2019-01-13T17:30:42.501Z,63.68
2019-01-13T17:33:12.343Z,64.21
2019-01-13T17:35:42.179Z,64.02
2019-01-13T17:38:11.767Z,64.08
2019-01-13T17:40:41.432Z,64.16
2019-01-13T17:43:11.048Z,64.25
2019-01-13T17:45:40.620Z,64.42
2019-01-13T17:48:10.550Z,64.46
2019-01-13T17:50:40.122Z,64.63
2019-01-13T17:53:10.776Z,64.68
2019-01-13T17:55:40.305Z,64.76
2019-01-13T17:58:10.879Z,64.73
2019-01-13T18:01:29.194Z,64.14
2019-01-13T18:03:58.700Z,64.28
2019-01-13T18:06:28.214Z,64.06
2019-01-13T18:08:57.705Z,64.05
2019-01-13T18:11:27.322Z,64.13
2019-01-13T18:13:56.810Z,64.17
2019-01-13T18:16:26.360Z,64.17
2019-01-13T18:18:55.908Z,64.40
2019-01-13T18:21:25.448Z,64.44
2019-01-13T18:23:54.936Z,64.31
2019-01-13T18:26:24.403Z,64.52
2019-01-13T18:28:53.949Z,64.77
2019-01-13T18:31:23.462Z,65.02
2019-01-13T18:33:53.090Z,65.08
2019-01-13T18:36:23.040Z,65.12
2019-01-13T18:38:52.579Z,65.39
2019-01-13T18:41:22.086Z,65.49
2019-01-13T18:43:51.668Z,65.34
2019-01-13T18:46:21.156Z,65.17
2019-01-13T18:48:50.651Z,65.15
2019-01-13T18:51:22.195Z,65.04
2019-01-13T18:53:51.376Z,65.26
2019-01-13T18:56:20.898Z,65.25
2019-01-13T18:58:50.546Z,65.28
2019-01-13T19:01:20.590Z,65.03
2019-01-13T19:03:50.215Z,65.04
2019-01-13T19:06:19.739Z,65.02
2019-01-13T19:08:49.231Z,65.11
2019-01-13T19:11:31.176Z,64.81
2019-01-13T19:14:11.161Z,64.79
2019-01-13T19:16:53.544Z,64.66
2019-01-13T19:19:23.037Z,64.37
2019-01-13T19:21:52.528Z,64.31
2019-01-13T19:24:22.100Z,64.05
2019-01-13T19:26:51.580Z,64.23
2019-01-13T19:29:21.092Z,64.04
2019-01-13T19:31:50.589Z,64.09
2019-01-13T19:34:20.095Z,64.39
2019-01-13T19:36:49.702Z,64.65
2019-01-13T19:39:19.451Z,65.16
2019-01-13T19:41:51.267Z,65.43
2019-01-13T19:44:20.717Z,65.58
2019-01-13T19:46:52.180Z,66.07
2019-01-13T19:49:24.517Z,66.50
2019-01-13T19:51:54.189Z,67.04
2019-01-13T19:54:23.714Z,66.95
2019-01-13T19:56:53.475Z,67.29
2019-01-13T19:59:22.969Z,67.48
2019-01-13T20:01:53.948Z,67.52
2019-01-13T20:04:24.747Z,67.86
2019-01-13T20:06:54.444Z,68.00
2019-01-13T20:09:23.995Z,68.09
2019-01-13T20:11:53.656Z,68.05
2019-01-13T20:14:23.261Z,68.34
2019-01-13T20:16:53.146Z,68.38
2019-01-13T20:19:22.863Z,68.60
2019-01-13T20:21:52.405Z,68.80
2019-01-13T20:24:22.034Z,68.84
2019-01-13T20:26:51.571Z,69.23
2019-01-13T20:29:21.162Z,69.42
2019-01-13T20:31:50.919Z,69.92
2019-01-13T20:34:20.456Z,69.95
2019-01-13T20:36:49.931Z,70.14
2019-01-13T20:39:19.428Z,70.21
2019-01-13T20:41:48.923Z,70.58
2019-01-13T20:44:18.394Z,70.84
2019-01-13T20:46:47.881Z,71.15
2019-01-13T20:49:17.444Z,71.29
2019-01-13T20:51:46.949Z,71.29
2019-01-13T20:54:16.964Z,71.69
2019-01-13T20:56:46.492Z,72.01
2019-01-13T20:59:15.953Z,72.30
2019-01-13T21:01:45.412Z,72.54
2019-01-13T21:04:14.838Z,72.62
2019-01-13T21:06:44.337Z,72.60
2019-01-13T21:09:13.880Z,72.88
2019-01-13T21:11:43.352Z,73.01
2019-01-13T21:14:12.857Z,73.12
2019-01-13T21:16:42.374Z,73.28
2019-01-13T21:19:11.938Z,73.33
2019-01-13T21:21:41.451Z,73.09
2019-01-13T21:24:10.948Z,73.21
2019-01-13T21:26:40.422Z,73.05
2019-01-13T21:29:09.887Z,73.21
2019-01-13T21:31:39.377Z,73.18
2019-01-13T21:34:08.933Z,73.25
2019-01-13T21:36:38.408Z,73.26
2019-01-13T21:39:09.574Z,73.26
2019-01-13T21:41:39.022Z,73.32
2019-01-13T21:44:08.523Z,73.35
2019-01-13T21:46:38.014Z,73.29
2019-01-13T21:49:07.533Z,73.25
2019-01-13T21:51:36.995Z,73.20
2019-01-13T21:54:10.895Z,73.27
2019-01-13T21:56:37.788Z,73.37
2019-01-13T21:59:07.279Z,73.39
2019-01-13T22:01:36.755Z,73.61
2019-01-13T22:04:06.473Z,73.56
2019-01-13T22:06:35.977Z,73.59
2019-01-13T22:09:10.836Z,74.00
2019-01-13T22:11:40.306Z,74.07
2019-01-13T22:14:09.806Z,73.83
2019-01-13T22:16:39.287Z,74.24
2019-01-13T22:19:08.901Z,74.26
2019-01-13T22:21:38.439Z,74.43
2019-01-13T22:24:07.987Z,74.46
2019-01-13T22:26:37.459Z,74.63
2019-01-13T22:29:06.941Z,74.68
2019-01-13T22:31:36.517Z,74.77
2019-01-13T22:34:06.021Z,74.90
2019-01-13T22:36:35.518Z,75.03
2019-01-13T22:39:08.120Z,75.09
2019-01-13T22:41:37.645Z,75.08
2019-01-13T22:44:07.126Z,75.20
2019-01-13T22:46:36.608Z,75.23
2019-01-13T22:49:07.164Z,75.26
2019-01-13T22:51:36.646Z,75.26
2019-01-13T22:54:06.122Z,75.34
2019-01-13T22:56:35.618Z,75.29
2019-01-13T22:59:05.119Z,75.29
2019-01-13T23:01:39.633Z,75.33
2019-01-13T23:04:13.890Z,75.53
2019-01-13T23:06:43.460Z,75.38
2019-01-13T23:09:13.595Z,75.29
2019-01-13T23:11:43.058Z,75.27
2019-01-13T23:14:12.539Z,75.11
2019-01-13T23:16:42.304Z,75.12
2019-01-13T23:19:11.796Z,75.11
2019-01-13T23:21:41.334Z,75.08
2019-01-13T23:24:10.855Z,75.04
2019-01-13T23:26:40.345Z,74.72
2019-01-13T23:29:09.783Z,74.74
2019-01-13T23:31:39.251Z,74.71
2019-01-13T23:34:08.746Z,74.69
2019-01-13T23:36:38.222Z,74.33
2019-01-13T23:39:09.103Z,74.27
2019-01-13T23:41:38.574Z,74.71
2019-01-13T23:44:08.084Z,74.48
2019-01-13T23:46:37.572Z,75.62
2019-01-13T23:49:07.523Z,76.08
2019-01-13T23:51:37.029Z,76.00
2019-01-13T23:54:06.530Z,76.14
2019-01-13T23:56:35.995Z,76.31
2019-01-13T23:59:05.510Z,76.41
